createdAt,value
2017-08-06T00:00:17.044Z,16.30
2017-08-06T00:02:43.455Z,16.30
2017-08-06T00:05:09.867Z,16.20
2017-08-06T00:07:36.267Z,16.10
2017-08-06T00:10:02.758Z,16.00
2017-08-06T00:12:29.196Z,16.00
2017-08-06T00:14:55.576Z,15.90
2017-08-06T00:17:22.019Z,15.80
2017-08-06T00:19:48.456Z,15.80
2017-08-06T00:22:14.864Z,15.80
2017-08-06T00:24:41.277Z,15.70
2017-08-06T00:27:07.684Z,15.70
2017-08-06T00:29:34.101Z,15.60
2017-08-06T00:32:00.487Z,15.60
2017-08-06T00:34:26.890Z,15.60
2017-08-06T00:36:53.311Z,15.50
2017-08-06T00:39:19.689Z,15.50
2017-08-06T00:41:46.108Z,15.50
2017-08-06T00:44:12.533Z,15.40
2017-08-06T00:46:38.891Z,15.40
2017-08-06T00:49:05.335Z,15.40
2017-08-06T00:51:31.714Z,15.30
2017-08-06T00:53:58.127Z,15.30
2017-08-06T00:56:24.568Z,15.20
2017-08-06T00:58:50.957Z,15.20
2017-08-06T01:01:18.111Z,15.10
2017-08-06T01:03:44.622Z,15.10
2017-08-06T01:06:11.011Z,15.10
2017-08-06T01:08:38.208Z,15.00
2017-08-06T01:11:04.667Z,15.00
2017-08-06T01:13:31.853Z,14.90
2017-08-06T01:15:58.316Z,14.90
2017-08-06T01:18:24.767Z,14.90
2017-08-06T01:20:51.189Z,14.80
2017-08-06T01:23:18.700Z,14.80
2017-08-06T01:25:45.125Z,14.80
2017-08-06T01:28:12.400Z,14.70
2017-08-06T01:30:38.876Z,14.70
2017-08-06T01:33:05.322Z,14.70
2017-08-06T01:35:31.744Z,14.70
2017-08-06T01:37:58.146Z,14.80
2017-08-06T01:40:24.569Z,14.80
2017-08-06T01:42:50.975Z,14.80
2017-08-06T01:45:17.390Z,14.70
2017-08-06T01:47:43.843Z,14.60
2017-08-06T01:50:10.331Z,14.60
2017-08-06T01:52:36.743Z,14.50
2017-08-06T01:55:03.193Z,14.50
2017-08-06T01:57:30.639Z,14.40
2017-08-06T01:59:57.003Z,14.40
2017-08-06T02:02:23.411Z,14.40
2017-08-06T02:04:49.839Z,14.40
2017-08-06T02:07:16.227Z,14.30
2017-08-06T02:09:42.699Z,14.30
2017-08-06T02:12:09.086Z,14.30
2017-08-06T02:14:36.246Z,14.20
2017-08-06T02:17:02.647Z,14.20
2017-08-06T02:19:29.068Z,14.10
2017-08-06T02:21:55.439Z,14.10
2017-08-06T02:24:21.839Z,14.00
2017-08-06T02:26:48.264Z,14.10
2017-08-06T02:29:14.651Z,14.00
2017-08-06T02:31:41.067Z,14.00
2017-08-06T02:34:07.467Z,14.00
2017-08-06T02:36:34.583Z,14.00
2017-08-06T02:39:01.810Z,14.00
2017-08-06T02:41:28.208Z,14.00
2017-08-06T02:43:54.610Z,14.00
2017-08-06T02:46:21.056Z,14.00
2017-08-06T02:48:47.432Z,14.00
2017-08-06T02:51:13.860Z,13.90
2017-08-06T02:53:40.286Z,13.90
2017-08-06T02:56:06.695Z,13.90
2017-08-06T02:58:33.091Z,13.90
2017-08-06T03:00:59.491Z,13.80
2017-08-06T03:03:25.880Z,13.80
2017-08-06T03:05:52.335Z,13.70
2017-08-06T03:08:18.715Z,13.70
2017-08-06T03:10:45.092Z,13.60
2017-08-06T03:13:11.556Z,13.60
2017-08-06T03:15:37.963Z,13.60
2017-08-06T03:18:04.363Z,13.60
2017-08-06T03:20:30.723Z,13.50
2017-08-06T03:22:57.195Z,13.40
2017-08-06T03:25:23.534Z,13.40
2017-08-06T03:27:49.927Z,13.40
2017-08-06T03:30:16.346Z,13.40
2017-08-06T03:32:42.770Z,13.30
2017-08-06T03:35:09.243Z,13.30
2017-08-06T03:37:35.655Z,13.30
2017-08-06T03:40:02.051Z,13.30
2017-08-06T03:42:28.532Z,13.30
2017-08-06T03:44:55.963Z,13.30
2017-08-06T03:47:22.364Z,13.30
2017-08-06T03:49:48.815Z,13.30
2017-08-06T03:52:15.219Z,13.30
2017-08-06T03:54:41.579Z,13.20
2017-08-06T03:57:07.999Z,13.30
2017-08-06T03:59:34.422Z,13.30
2017-08-06T04:02:00.799Z,13.30
2017-08-06T04:04:27.195Z,13.40
2017-08-06T04:06:53.616Z,13.40
2017-08-06T04:09:20.038Z,13.50
2017-08-06T04:11:46.512Z,13.50
2017-08-06T04:14:12.949Z,13.60
2017-08-06T04:16:39.427Z,13.60
2017-08-06T04:19:05.839Z,13.70
2017-08-06T04:21:32.339Z,13.70
2017-08-06T04:23:58.763Z,13.70
2017-08-06T04:26:25.132Z,13.70
2017-08-06T04:28:51.539Z,13.70
2017-08-06T04:31:19.059Z,13.70
2017-08-06T04:33:46.222Z,13.70
2017-08-06T04:36:12.583Z,13.70
2017-08-06T04:38:38.996Z,13.80
2017-08-06T04:41:05.431Z,13.80
2017-08-06T04:43:31.859Z,13.80
2017-08-06T04:45:58.276Z,13.80
2017-08-06T04:48:24.667Z,13.90
2017-08-06T04:50:51.096Z,13.90
2017-08-06T04:53:17.487Z,14.00
2017-08-06T04:55:43.931Z,14.00
2017-08-06T04:58:10.375Z,14.00
2017-08-06T05:00:36.813Z,14.10
2017-08-06T05:03:03.198Z,14.10
2017-08-06T05:05:29.659Z,14.20
2017-08-06T05:07:56.064Z,14.30
2017-08-06T05:10:22.427Z,14.30
2017-08-06T05:12:48.836Z,14.40
2017-08-06T05:15:15.255Z,14.50
2017-08-06T05:17:41.701Z,14.50
2017-08-06T05:20:08.107Z,14.60
2017-08-06T05:22:34.574Z,14.70
2017-08-06T05:25:01.008Z,14.70
2017-08-06T05:27:27.396Z,14.80
2017-08-06T05:29:53.895Z,14.90
2017-08-06T05:32:20.319Z,15.00
2017-08-06T05:34:46.694Z,15.00
2017-08-06T05:37:13.191Z,15.10
2017-08-06T05:39:39.607Z,15.20
2017-08-06T05:42:06.037Z,15.30
2017-08-06T05:44:32.494Z,15.30
2017-08-06T05:46:58.956Z,15.40
2017-08-06T05:49:25.359Z,15.40
2017-08-06T05:51:51.782Z,15.50
2017-08-06T05:54:18.208Z,15.60
2017-08-06T05:56:44.631Z,15.60
2017-08-06T05:59:11.392Z,15.70
2017-08-06T06:01:38.592Z,15.80
2017-08-06T06:04:04.987Z,15.80
2017-08-06T06:06:31.365Z,15.90
2017-08-06T06:08:57.786Z,16.00
2017-08-06T06:11:24.203Z,16.00
2017-08-06T06:13:51.369Z,16.10
2017-08-06T06:16:17.757Z,16.10
2017-08-06T06:18:44.163Z,16.20
2017-08-06T06:21:10.583Z,16.10
2017-08-06T06:23:37.067Z,16.20
2017-08-06T06:26:03.479Z,16.30
2017-08-06T06:28:29.895Z,16.40
2017-08-06T06:30:56.331Z,16.40
2017-08-06T06:33:22.750Z,16.60
2017-08-06T06:35:50.185Z,16.80
2017-08-06T06:38:16.635Z,17.00
2017-08-06T06:40:43.045Z,17.10
2017-08-06T06:43:09.468Z,17.20
2017-08-06T06:45:35.916Z,17.40
2017-08-06T06:48:02.401Z,17.40
2017-08-06T06:50:28.786Z,17.40
2017-08-06T06:52:55.219Z,17.40
2017-08-06T06:55:21.628Z,17.50
2017-08-06T06:57:48.034Z,17.60
2017-08-06T07:00:14.434Z,17.60
2017-08-06T07:02:40.849Z,17.80
2017-08-06T07:05:07.267Z,17.90
2017-08-06T07:07:33.647Z,17.90
2017-08-06T07:10:00.064Z,17.90
2017-08-06T07:12:26.496Z,17.80
2017-08-06T07:14:52.879Z,17.80
2017-08-06T07:17:19.347Z,17.80
2017-08-06T07:19:46.772Z,18.00
2017-08-06T07:22:13.155Z,18.10
2017-08-06T07:24:39.684Z,18.00
2017-08-06T07:27:06.089Z,18.00
2017-08-06T07:29:33.597Z,18.20
2017-08-06T07:32:00.004Z,18.30
2017-08-06T07:34:26.339Z,18.30
2017-08-06T07:36:52.727Z,18.30
2017-08-06T07:39:19.127Z,18.40
2017-08-06T07:41:45.547Z,18.50
2017-08-06T07:44:12.005Z,18.60
2017-08-06T07:46:38.421Z,18.70
2017-08-06T07:49:04.794Z,18.70
2017-08-06T07:51:31.168Z,18.70
2017-08-06T07:53:57.579Z,18.60
2017-08-06T07:56:23.973Z,18.60
2017-08-06T07:58:50.385Z,18.80
2017-08-06T08:01:16.782Z,18.80
2017-08-06T08:03:43.151Z,18.90
2017-08-06T08:06:09.651Z,19.00
2017-08-06T08:08:36.004Z,19.00
2017-08-06T08:11:03.127Z,19.00
2017-08-06T08:13:30.268Z,19.00
2017-08-06T08:15:56.732Z,19.00
2017-08-06T08:18:24.169Z,19.10
2017-08-06T08:20:50.554Z,19.10
2017-08-06T08:23:16.911Z,19.10
2017-08-06T08:25:43.276Z,19.20
2017-08-06T08:28:10.408Z,19.50
2017-08-06T08:30:36.853Z,19.50
2017-08-06T08:33:03.388Z,20.00
2017-08-06T08:35:29.793Z,20.70
2017-08-06T08:37:56.227Z,21.70
2017-08-06T08:40:22.586Z,22.70
2017-08-06T08:42:48.981Z,23.90
2017-08-06T08:45:15.423Z,25.40
2017-08-06T08:47:41.845Z,26.60
2017-08-06T08:50:09.362Z,27.40
2017-08-06T08:52:35.784Z,27.50
2017-08-06T08:55:02.307Z,27.00
2017-08-06T08:57:29.431Z,26.10
2017-08-06T08:59:56.574Z,26.10
2017-08-06T09:02:24.836Z,25.50
2017-08-06T09:04:51.976Z,24.40
2017-08-06T09:07:18.409Z,24.30
2017-08-06T09:09:44.795Z,24.50
2017-08-06T09:12:11.205Z,26.20
2017-08-06T09:14:37.583Z,28.20
2017-08-06T09:17:03.962Z,30.20
2017-08-06T09:19:31.060Z,34.00
2017-08-06T09:21:57.437Z,33.80
2017-08-06T09:24:23.912Z,35.50
2017-08-06T09:26:50.266Z,36.50
2017-08-06T09:29:16.665Z,36.20
2017-08-06T09:31:43.811Z,32.60
2017-08-06T09:34:10.931Z,30.50
2017-08-06T09:36:37.335Z,30.30
2017-08-06T09:39:03.801Z,29.40
2017-08-06T09:41:30.175Z,30.20
2017-08-06T09:43:56.631Z,31.40
2017-08-06T09:46:23.043Z,32.80
2017-08-06T09:48:49.408Z,34.20
2017-08-06T09:51:16.511Z,35.60
2017-08-06T09:53:42.925Z,35.60
2017-08-06T09:56:09.267Z,35.40
2017-08-06T09:58:36.415Z,33.20
2017-08-06T10:01:02.835Z,33.20
2017-08-06T10:03:29.295Z,31.50
2017-08-06T10:05:55.681Z,30.10
2017-08-06T10:08:22.129Z,28.80
2017-08-06T10:10:48.463Z,27.80
2017-08-06T10:13:14.835Z,26.70
2017-08-06T10:15:41.243Z,26.00
2017-08-06T10:18:08.371Z,25.20
2017-08-06T10:20:34.759Z,25.10
2017-08-06T10:23:01.140Z,24.90
2017-08-06T10:25:27.556Z,24.30
2017-08-06T10:27:53.949Z,24.00
2017-08-06T10:30:20.811Z,23.70
2017-08-06T10:32:47.174Z,23.50
2017-08-06T10:35:13.552Z,23.30
2017-08-06T10:37:39.954Z,23.20
2017-08-06T10:40:06.373Z,23.10
2017-08-06T10:42:32.785Z,23.00
2017-08-06T10:44:59.212Z,23.10
2017-08-06T10:47:25.618Z,23.10
2017-08-06T10:49:52.039Z,23.10
2017-08-06T10:52:18.488Z,23.20
2017-08-06T10:54:44.870Z,23.40
2017-08-06T10:57:11.284Z,23.50
2017-08-06T10:59:37.715Z,23.50
2017-08-06T11:02:04.071Z,23.40
2017-08-06T11:04:30.456Z,23.10
2017-08-06T11:06:56.889Z,23.00
2017-08-06T11:09:23.315Z,23.10
2017-08-06T11:11:49.737Z,23.30
2017-08-06T11:14:16.168Z,23.50
2017-08-06T11:16:42.529Z,23.60
2017-08-06T11:19:08.939Z,23.70
2017-08-06T11:21:35.380Z,23.70
2017-08-06T11:24:01.796Z,23.60
2017-08-06T11:26:28.181Z,23.70
2017-08-06T11:28:54.607Z,23.50
2017-08-06T11:31:20.989Z,23.30
2017-08-06T11:33:47.400Z,23.10
2017-08-06T11:36:13.809Z,23.00
2017-08-06T11:38:40.206Z,23.00
2017-08-06T11:41:08.428Z,23.10
2017-08-06T11:43:34.835Z,23.00
2017-08-06T11:46:01.212Z,23.10
2017-08-06T11:48:27.608Z,23.10
2017-08-06T11:50:54.211Z,23.00
2017-08-06T11:53:20.608Z,22.90
2017-08-06T11:55:47.055Z,22.80
2017-08-06T11:58:13.475Z,22.90
2017-08-06T12:00:39.862Z,22.90
2017-08-06T12:03:06.211Z,22.70
2017-08-06T12:05:32.592Z,22.60
2017-08-06T12:07:58.970Z,22.60
2017-08-06T12:10:25.427Z,22.80
2017-08-06T12:12:51.868Z,22.90
2017-08-06T12:15:18.234Z,23.00
2017-08-06T12:17:44.620Z,23.00
2017-08-06T12:20:11.027Z,22.90
2017-08-06T12:22:37.416Z,22.90
2017-08-06T12:25:03.810Z,22.80
2017-08-06T12:27:30.205Z,22.80
2017-08-06T12:29:57.331Z,22.80
2017-08-06T12:32:24.459Z,22.80
2017-08-06T12:34:50.844Z,22.80
2017-08-06T12:37:17.199Z,22.80
2017-08-06T12:39:44.378Z,23.10
2017-08-06T12:42:10.850Z,23.00
2017-08-06T12:44:37.215Z,23.60
2017-08-06T12:47:03.600Z,24.10
2017-08-06T12:49:30.048Z,24.10
2017-08-06T12:51:56.490Z,24.00
2017-08-06T12:54:22.916Z,23.70
2017-08-06T12:56:49.279Z,23.60
2017-08-06T12:59:16.393Z,23.10
2017-08-06T13:01:43.503Z,23.00
2017-08-06T13:04:09.951Z,23.00
2017-08-06T13:06:36.336Z,23.00
2017-08-06T13:09:02.788Z,22.90
2017-08-06T13:11:29.203Z,22.90
2017-08-06T13:13:55.644Z,22.80
2017-08-06T13:16:22.007Z,22.90
2017-08-06T13:18:48.375Z,22.90
2017-08-06T13:21:15.511Z,23.00
2017-08-06T13:23:41.911Z,22.90
2017-08-06T13:26:08.352Z,22.90
2017-08-06T13:28:34.707Z,22.90
2017-08-06T13:31:01.067Z,22.90
2017-08-06T13:33:27.527Z,23.00
2017-08-06T13:35:53.907Z,23.10
2017-08-06T13:38:20.271Z,23.30
2017-08-06T13:40:46.670Z,24.50
2017-08-06T13:43:13.062Z,27.40
2017-08-06T13:45:39.451Z,30.90
2017-08-06T13:48:05.863Z,34.00
2017-08-06T13:50:32.219Z,36.70
2017-08-06T13:52:58.610Z,39.00
2017-08-06T13:55:25.001Z,41.20
2017-08-06T13:57:51.339Z,42.60
2017-08-06T14:00:17.735Z,43.50
2017-08-06T14:02:44.115Z,44.40
2017-08-06T14:05:10.508Z,44.60
2017-08-06T14:07:36.876Z,45.20
2017-08-06T14:10:03.295Z,45.90
2017-08-06T14:12:29.852Z,46.10
2017-08-06T14:14:56.231Z,45.70
2017-08-06T14:17:22.604Z,46.10
2017-08-06T14:19:48.964Z,45.00
2017-08-06T14:22:15.347Z,42.50
2017-08-06T14:24:41.800Z,40.10
2017-08-06T14:27:08.192Z,37.70
2017-08-06T14:29:34.590Z,35.50
2017-08-06T14:32:00.954Z,33.50
2017-08-06T14:34:27.342Z,31.90
2017-08-06T14:37:03.799Z,30.40
2017-08-06T14:39:30.178Z,29.00
2017-08-06T14:41:57.643Z,28.10
2017-08-06T14:44:24.031Z,27.30
2017-08-06T14:46:51.127Z,26.10
2017-08-06T14:49:18.243Z,25.60
2017-08-06T14:51:44.623Z,25.60
2017-08-06T14:54:10.987Z,25.30
2017-08-06T14:56:37.355Z,24.90
2017-08-06T14:59:03.707Z,24.70
2017-08-06T15:01:30.051Z,24.40
2017-08-06T15:03:56.464Z,24.10
2017-08-06T15:06:22.835Z,23.90
2017-08-06T15:08:49.179Z,23.70
2017-08-06T15:11:15.559Z,23.50
2017-08-06T15:13:41.934Z,23.50
2017-08-06T15:16:09.442Z,23.40
2017-08-06T15:18:36.591Z,23.10
2017-08-06T15:21:03.006Z,23.10
2017-08-06T15:23:29.399Z,23.00
2017-08-06T15:25:55.804Z,22.90
2017-08-06T15:28:22.191Z,22.90
2017-08-06T15:30:50.411Z,23.00
2017-08-06T15:33:16.767Z,23.00
2017-08-06T15:35:43.159Z,23.00
2017-08-06T15:38:09.527Z,23.30
2017-08-06T15:40:35.940Z,23.60
2017-08-06T15:43:02.323Z,23.80
2017-08-06T15:45:28.695Z,23.90
2017-08-06T15:47:55.111Z,24.00
2017-08-06T15:50:21.491Z,24.00
2017-08-06T15:52:47.851Z,24.00
2017-08-06T15:55:14.240Z,24.00
2017-08-06T15:57:40.619Z,24.10
2017-08-06T16:00:07.763Z,24.80
2017-08-06T16:02:34.115Z,24.70
2017-08-06T16:05:00.500Z,25.00
2017-08-06T16:07:27.592Z,25.40
2017-08-06T16:09:53.992Z,25.40
2017-08-06T16:12:20.355Z,25.50
2017-08-06T16:14:46.725Z,25.70
2017-08-06T16:17:13.122Z,25.60
2017-08-06T16:19:40.483Z,25.50
2017-08-06T16:22:06.855Z,25.50
2017-08-06T16:24:34.355Z,25.30
2017-08-06T16:27:00.753Z,25.10
2017-08-06T16:29:27.155Z,24.90
2017-08-06T16:31:53.618Z,24.50
2017-08-06T16:34:20.894Z,24.30
2017-08-06T16:36:47.264Z,24.00
2017-08-06T16:39:14.406Z,23.40
2017-08-06T16:41:40.779Z,23.40
2017-08-06T16:44:07.179Z,23.30
2017-08-06T16:46:33.585Z,23.10
2017-08-06T16:48:59.970Z,23.00
2017-08-06T16:51:27.099Z,22.80
2017-08-06T16:53:53.483Z,22.80
2017-08-06T16:56:19.892Z,22.70
2017-08-06T16:58:46.307Z,22.70
2017-08-06T17:01:12.712Z,22.60
2017-08-06T17:03:39.089Z,22.40
2017-08-06T17:06:06.294Z,22.30
2017-08-06T17:08:33.455Z,22.20
2017-08-06T17:11:00.576Z,22.10
2017-08-06T17:13:26.953Z,22.10
2017-08-06T17:15:53.363Z,22.00
2017-08-06T17:18:19.787Z,21.90
2017-08-06T17:20:46.168Z,21.80
2017-08-06T17:23:12.552Z,21.80
2017-08-06T17:25:38.995Z,21.70
2017-08-06T17:28:06.079Z,21.60
2017-08-06T17:30:32.526Z,21.50
2017-08-06T17:33:01.991Z,21.50
2017-08-06T17:35:28.355Z,21.40
2017-08-06T17:37:54.739Z,21.40
2017-08-06T17:40:21.059Z,21.30
2017-08-06T17:42:47.439Z,21.20
2017-08-06T17:45:13.868Z,21.20
2017-08-06T17:47:40.239Z,21.10
2017-08-06T17:50:06.611Z,21.10
2017-08-06T17:52:33.067Z,21.00
2017-08-06T17:54:59.455Z,20.90
2017-08-06T17:57:25.852Z,20.80
2017-08-06T17:59:52.231Z,20.80
2017-08-06T18:02:18.624Z,20.70
2017-08-06T18:04:45.790Z,20.60
2017-08-06T18:07:12.173Z,20.60
2017-08-06T18:09:39.302Z,20.50
2017-08-06T18:12:06.503Z,20.40
2017-08-06T18:14:32.905Z,20.40
2017-08-06T18:16:59.283Z,20.30
2017-08-06T18:19:25.675Z,20.30
2017-08-06T18:21:52.249Z,20.20
2017-08-06T18:24:19.973Z,20.20
2017-08-06T18:26:46.775Z,20.10
2017-08-06T18:29:14.411Z,20.00
2017-08-06T18:31:41.500Z,20.00
2017-08-06T18:34:09.974Z,19.90
2017-08-06T18:36:37.842Z,19.70
2017-08-06T18:39:04.962Z,19.70
2017-08-06T18:41:32.817Z,19.70
2017-08-06T18:44:00.717Z,19.60
2017-08-06T18:46:28.601Z,19.50
2017-08-06T18:48:56.568Z,19.50
2017-08-06T18:51:25.292Z,19.40
2017-08-06T18:53:53.149Z,19.40
2017-08-06T18:56:21.147Z,19.30
2017-08-06T18:58:49.096Z,19.20
2017-08-06T19:01:16.889Z,19.10
2017-08-06T19:03:44.681Z,19.00
2017-08-06T19:06:12.632Z,18.90
2017-08-06T19:08:40.550Z,18.90
2017-08-06T19:11:08.490Z,18.80
2017-08-06T19:13:36.443Z,18.70
2017-08-06T19:16:04.305Z,18.70
2017-08-06T19:18:32.223Z,18.60
2017-08-06T19:21:00.913Z,18.50
2017-08-06T19:23:28.788Z,18.40
2017-08-06T19:25:56.820Z,18.30
2017-08-06T19:28:24.819Z,18.20
2017-08-06T19:30:52.714Z,18.20
2017-08-06T19:33:20.569Z,18.20
2017-08-06T19:35:49.297Z,18.00
2017-08-06T19:38:17.601Z,18.00
2017-08-06T19:40:45.572Z,18.00
2017-08-06T19:43:13.365Z,18.00
2017-08-06T19:45:41.227Z,17.90
2017-08-06T19:48:10.069Z,17.70
2017-08-06T19:50:38.017Z,17.70
2017-08-06T19:53:07.040Z,17.60
2017-08-06T19:55:35.132Z,17.60
2017-08-06T19:58:03.012Z,17.60
2017-08-06T20:00:30.942Z,17.50
2017-08-06T20:02:58.970Z,17.50
2017-08-06T20:05:26.789Z,17.40
2017-08-06T20:07:55.403Z,17.20
2017-08-06T20:10:23.469Z,17.30
2017-08-06T20:12:51.399Z,17.20
2017-08-06T20:15:19.291Z,17.20
2017-08-06T20:17:48.310Z,17.10
2017-08-06T20:20:16.200Z,17.10
2017-08-06T20:22:44.036Z,17.10
2017-08-06T20:25:12.244Z,17.00
2017-08-06T20:27:40.861Z,16.80
2017-08-06T20:30:08.752Z,16.80
2017-08-06T20:32:36.814Z,16.80
2017-08-06T20:35:04.663Z,16.80
2017-08-06T20:37:32.463Z,16.80
2017-08-06T20:40:00.490Z,16.70
2017-08-06T20:42:28.378Z,16.70
2017-08-06T20:44:56.276Z,16.70
2017-08-06T20:47:24.296Z,16.70
2017-08-06T20:49:52.150Z,16.60
2017-08-06T20:52:19.920Z,16.60
2017-08-06T20:54:48.655Z,16.50
2017-08-06T20:57:16.392Z,16.40
2017-08-06T20:59:43.852Z,16.40
2017-08-06T21:02:11.409Z,16.40
2017-08-06T21:04:38.952Z,16.40
2017-08-06T21:07:05.914Z,16.40
2017-08-06T21:09:32.791Z,16.30
2017-08-06T21:11:59.579Z,16.30
2017-08-06T21:14:26.345Z,16.20
2017-08-06T21:16:53.886Z,16.20
2017-08-06T21:19:20.848Z,16.20
2017-08-06T21:21:47.633Z,16.20
2017-08-06T21:24:14.926Z,16.10
2017-08-06T21:26:41.363Z,16.10
2017-08-06T21:29:08.536Z,16.10
2017-08-06T21:31:34.980Z,16.10
2017-08-06T21:34:01.353Z,16.10
2017-08-06T21:36:27.735Z,16.10
2017-08-06T21:38:54.188Z,16.00
2017-08-06T21:41:20.547Z,15.90
2017-08-06T21:43:46.939Z,15.90
2017-08-06T21:46:13.366Z,15.90
2017-08-06T21:48:39.795Z,15.80
2017-08-06T21:51:06.176Z,15.90
2017-08-06T21:53:32.571Z,15.90
2017-08-06T21:55:58.947Z,15.80
2017-08-06T21:58:25.358Z,15.80
2017-08-06T22:00:51.828Z,15.80
2017-08-06T22:03:18.219Z,15.80
2017-08-06T22:05:44.655Z,15.80
2017-08-06T22:08:11.051Z,15.70
2017-08-06T22:10:37.491Z,15.70
2017-08-06T22:13:03.856Z,15.70
2017-08-06T22:15:30.297Z,15.60
2017-08-06T22:17:56.749Z,15.60
2017-08-06T22:20:23.143Z,15.50
2017-08-06T22:22:49.527Z,15.50
2017-08-06T22:25:15.908Z,15.50
2017-08-06T22:27:42.284Z,15.50
2017-08-06T22:30:08.757Z,15.50
2017-08-06T22:32:35.150Z,15.50
2017-08-06T22:35:02.676Z,15.40
2017-08-06T22:37:29.131Z,15.40
2017-08-06T22:39:55.532Z,15.30
2017-08-06T22:42:21.908Z,15.30
2017-08-06T22:44:48.338Z,15.20
2017-08-06T22:47:14.718Z,15.20
2017-08-06T22:49:41.135Z,15.20
2017-08-06T22:52:07.583Z,15.10
2017-08-06T22:54:33.963Z,15.10
2017-08-06T22:57:00.338Z,15.10
2017-08-06T22:59:26.782Z,15.10
2017-08-06T23:01:53.694Z,15.10
2017-08-06T23:04:20.090Z,15.10
2017-08-06T23:06:46.547Z,15.10
2017-08-06T23:09:13.923Z,15.00
2017-08-06T23:11:40.290Z,15.00
2017-08-06T23:14:06.744Z,15.00
2017-08-06T23:16:33.152Z,15.00
2017-08-06T23:18:59.547Z,14.90
2017-08-06T23:21:25.992Z,14.90
2017-08-06T23:23:52.402Z,14.80
2017-08-06T23:26:18.763Z,14.80
2017-08-06T23:28:45.251Z,14.70
2017-08-06T23:31:11.662Z,14.70
2017-08-06T23:33:38.035Z,14.60
2017-08-06T23:36:04.459Z,14.50
2017-08-06T23:38:31.603Z,14.50
2017-08-06T23:40:57.981Z,14.40
2017-08-06T23:43:24.479Z,14.40
2017-08-06T23:45:50.847Z,14.40
2017-08-06T23:48:17.951Z,14.30
2017-08-06T23:50:44.363Z,14.20
2017-08-06T23:53:10.744Z,14.10
2017-08-06T23:55:37.107Z,14.10
2017-08-06T23:58:03.551Z,14.10
